Terminal Aerodrome Forecast
Issued by NWS Detroit/Pontiac, MI

Home | Current Version | Previous Version | Text Only | Print | Product List | Glossary On
Versions: 1 2 3 4 5 6 7 8 9 10 11 12 13
138
FTUS43 KDTX 282320
TAFFNT
TAF
KFNT 282320Z 2900/2924 05007KT P6SM FEW060 BKN150
     FM290200 02005KT P6SM FEW060
     FM291400 05009KT P6SM SCT120 BKN200
     FM291800 08010KT P6SM SCT050 BKN150=

USA.gov is the U.S. government's official web portal to all federal, state and local government web resources and services.